Terminal Aerodrome Forecast
Issued by NWS Grand Forks, ND

Home | Current Version | Previous Version | Text Only | Print | Product List | Glossary Off
Versions: 1 2 3 4 5 6 7 8 9 10 11 12 13 14 15 16 17 18 19 20

190
FTUS43 KFGF 251127
TAFFAR
TAF
KFAR 251127Z 2512/2612 13006KT P6SM FEW200
      TEMPO 2513/2515 SCT025
     FM251500 15012KT P6SM SCT025
     FM251800 15014G20KT P6SM SCT040
     FM260000 15012KT P6SM FEW150
     FM260800 VRB05KT P6SM BKN025=

USA.gov is the U.S. government's official web portal to all federal, state and local government web resources and services.